Time;durP1;ratioP1;P1;durP2;ratioP2;P2;SDS_P1;SDS_P2;PMS_P1;PMS_P2;Temp;Humidity;BMP_temperature;BMP_pressure;BME280_temperature;BME280_humidity;BME280_pressure;Samples;Min_cycle;Max_cycle;Signal;HPM_P1;HPM_P2
2023/10/05 00:02:08;;;;;;;16.65;15.65;;;;;;;;;;4998241;28;20065;-64
2023/10/05 00:04:41;;;;;;;16.90;15.90;;;;;;;;;;5002590;28;20038;-65
2023/10/05 00:07:26;;;;;;;15.50;14.60;;;;;;;;;;5001026;28;20018;-63
2023/10/05 00:09:52;;;;;;;15.43;14.52;;;;;;;;;;5002011;28;20072;-63
2023/10/05 00:12:22;;;;;;;15.35;14.32;;;;;;;;;;5001942;28;20525;-64
2023/10/05 00:14:55;;;;;;;16.90;15.90;;;;;;;;;;5000226;28;20037;-63
2023/10/05 00:17:20;;;;;;;15.20;14.20;;;;;;;;;;5001719;28;20038;-64
2023/10/05 00:19:46;;;;;;;15.32;14.43;;;;;;;;;;5001456;28;20372;-63
2023/10/05 00:22:11;;;;;;;26.23;16.27;;;;;;;;;;5002685;28;20057;-63
2023/10/05 00:24:37;;;;;;;17.35;16.35;;;;;;;;;;5001693;28;20033;-63
2023/10/05 00:27:09;;;;;;;17.55;15.68;;;;;;;;;;5002306;28;20045;-64
2023/10/05 00:29:41;;;;;;;16.77;15.68;;;;;;;;;;5004988;28;20542;-64
2023/10/05 00:32:22;;;;;;;16.65;15.68;;;;;;;;;;5006890;28;20060;-63
2023/10/05 00:34:52;;;;;;;15.30;14.35;;;;;;;;;;5004452;28;20436;-63
2023/10/05 00:37:19;;;;;;;17.15;15.88;;;;;;;;;;5005296;28;20034;-64
2023/10/05 00:39:48;;;;;;;16.10;15.05;;;;;;;;;;5005071;28;20060;-63
2023/10/05 00:42:15;;;;;;;16.88;15.68;;;;;;;;;;5005613;28;20037;-63
2023/10/05 00:44:42;;;;;;;17.35;15.77;;;;;;;;;;5008749;28;20042;-64
2023/10/05 00:47:11;;;;;;;16.70;15.52;;;;;;;;;;5006785;28;20076;-64
2023/10/05 00:49:58;;;;;;;17.05;16.05;;;;;;;;;;4991794;28;20065;-64
2023/10/05 00:52:28;;;;;;;15.10;14.13;;;;;;;;;;5007400;28;20100;-65
2023/10/05 00:54:56;;;;;;;14.02;13.23;;;;;;;;;;5006916;28;20061;-63
2023/10/05 00:57:23;;;;;;;16.60;15.60;;;;;;;;;;5005203;28;20057;-65
2023/10/05 01:02:44;;;;;;;18.23;15.80;;;;;;;;;;5004372;28;20068;-65
2023/10/05 01:05:15;;;;;;;16.52;15.15;;;;;;;;;;5005121;28;20045;-65
2023/10/05 01:12:38;;;;;;;17.48;16.38;;;;;;;;;;5002816;28;20068;-65
2023/10/05 01:15:06;;;;;;;15.57;14.50;;;;;;;;;;5003721;28;20096;-64
2023/10/05 01:17:34;;;;;;;17.50;16.40;;;;;;;;;;5006671;28;20076;-65
2023/10/05 01:20:22;;;;;;;15.63;14.32;;;;;;;;;;5005552;28;20069;-63
2023/10/05 01:22:49;;;;;;;17.38;16.02;;;;;;;;;;5003930;28;20108;-63
2023/10/05 01:25:15;;;;;;;15.95;15.02;;;;;;;;;;5006634;28;20680;-64
2023/10/05 01:27:43;;;;;;;14.98;14.07;;;;;;;;;;4990337;28;20123;-65
2023/10/05 01:30:12;;;;;;;17.10;15.88;;;;;;;;;;5002865;28;20108;-65
2023/10/05 01:32:38;;;;;;;15.77;14.68;;;;;;;;;;5004210;28;20049;-63
2023/10/05 01:35:08;;;;;;;15.38;14.38;;;;;;;;;;5006515;28;20033;-65
2023/10/05 01:37:36;;;;;;;16.70;15.52;;;;;;;;;;5004670;28;20045;-64
2023/10/05 01:40:02;;;;;;;16.33;15.23;;;;;;;;;;5004380;28;20037;-65
2023/10/05 01:42:30;;;;;;;19.55;15.43;;;;;;;;;;5006374;28;20029;-63
2023/10/05 01:44:55;;;;;;;17.15;15.95;;;;;;;;;;5004254;28;20048;-65
2023/10/05 01:47:22;;;;;;;19.08;15.73;;;;;;;;;;5005187;28;20034;-65
2023/10/05 01:49:50;;;;;;;16.20;15.23;;;;;;;;;;5002704;28;20060;-65
2023/10/05 01:52:16;;;;;;;16.60;15.60;;;;;;;;;;5005610;28;20069;-65
2023/10/05 01:54:43;;;;;;;16.65;15.43;;;;;;;;;;5003581;28;20030;-63
2023/10/05 01:57:12;;;;;;;17.67;16.58;;;;;;;;;;5006848;28;20051;-63
2023/10/05 01:59:39;;;;;;;15.70;14.70;;;;;;;;;;5003380;28;20031;-64
2023/10/05 02:02:09;;;;;;;17.20;16.00;;;;;;;;;;5003353;28;20064;-65
2023/10/05 02:04:38;;;;;;;17.50;16.13;;;;;;;;;;5004873;28;20029;-65
2023/10/05 02:07:03;;;;;;;15.68;14.77;;;;;;;;;;5003236;28;20029;-65
2023/10/05 02:09:30;;;;;;;16.38;15.38;;;;;;;;;;5005355;28;20482;-65
2023/10/05 02:12:03;;;;;;;17.77;16.67;;;;;;;;;;5001148;28;20033;-65
2023/10/05 02:14:30;;;;;;;15.80;14.85;;;;;;;;;;5006675;28;20046;-65
2023/10/05 02:16:57;;;;;;;16.70;15.60;;;;;;;;;;5003181;28;20041;-65
2023/10/05 02:19:22;;;;;;;16.83;15.77;;;;;;;;;;4986254;28;20038;-65
2023/10/05 02:21:52;;;;;;;16.80;15.80;;;;;;;;;;5005967;28;20045;-65
2023/10/05 02:24:25;;;;;;;16.40;15.40;;;;;;;;;;5003142;28;20096;-64
2023/10/05 02:29:30;;;;;;;18.27;17.17;;;;;;;;;;5005843;28;20399;-65
2023/10/05 02:37:04;;;;;;;15.27;14.38;;;;;;;;;;4988217;28;20068;-63
2023/10/05 02:39:32;;;;;;;16.55;15.48;;;;;;;;;;5003457;28;20038;-63
2023/10/05 02:41:57;;;;;;;16.65;15.65;;;;;;;;;;5003518;28;20092;-65
2023/10/05 02:44:28;;;;;;;14.82;13.93;;;;;;;;;;4986945;28;20459;-65
2023/10/05 02:46:53;;;;;;;16.73;15.63;;;;;;;;;;5004833;28;20034;-65
2023/10/05 02:49:22;;;;;;;15.95;14.90;;;;;;;;;;5004276;28;20033;-65
2023/10/05 02:51:47;;;;;;;15.27;14.15;;;;;;;;;;5002918;28;20026;-65
2023/10/05 02:54:14;;;;;;;16.13;15.05;;;;;;;;;;4982254;28;20356;-65
2023/10/05 02:56:40;;;;;;;16.95;15.85;;;;;;;;;;5004553;28;20038;-63
2023/10/05 02:59:14;;;;;;;15.63;14.43;;;;;;;;;;4985149;28;20048;-65
2023/10/05 03:01:42;;;;;;;15.15;14.18;;;;;;;;;;5004118;28;20061;-63
2023/10/05 03:04:21;;;;;;;17.65;16.55;;;;;;;;;;5001286;28;20026;-63
2023/10/05 03:06:48;;;;;;;15.65;14.75;;;;;;;;;;5004768;28;20034;-65
2023/10/05 03:09:14;;;;;;;16.77;15.57;;;;;;;;;;5003667;28;20455;-63
2023/10/05 03:11:46;;;;;;;15.55;14.65;;;;;;;;;;5003556;28;20076;-63
2023/10/05 03:14:12;;;;;;;18.77;17.65;;;;;;;;;;5002603;28;20037;-63
2023/10/05 03:16:47;;;;;;;17.25;16.05;;;;;;;;;;5003955;28;20049;-63
2023/10/05 03:19:24;;;;;;;16.10;15.20;;;;;;;;;;5000067;28;20038;-64
2023/10/05 03:21:52;;;;;;;18.40;16.83;;;;;;;;;;5003859;28;20034;-65
2023/10/05 03:24:19;;;;;;;16.23;15.23;;;;;;;;;;4999675;28;20034;-63
2023/10/05 03:26:46;;;;;;;17.52;16.42;;;;;;;;;;4999464;28;20064;-65
2023/10/05 03:29:12;;;;;;;16.00;15.00;;;;;;;;;;5002692;28;20041;-64
2023/10/05 03:31:43;;;;;;;16.08;15.18;;;;;;;;;;5003760;28;20034;-65
2023/10/05 03:34:09;;;;;;;;;;;;;;;;;;5004368;28;20050;-65
2023/10/05 03:36:35;;;;;;;15.93;14.88;;;;;;;;;;5000591;28;19975;-65
2023/10/05 03:39:06;;;;;;;16.67;15.50;;;;;;;;;;5004789;28;20041;-63
2023/10/05 03:41:32;;;;;;;15.98;15.00;;;;;;;;;;5000170;28;20037;-63
2023/10/05 03:44:01;;;;;;;15.50;14.50;;;;;;;;;;5002922;28;20059;-63
2023/10/05 03:46:27;;;;;;;17.13;15.98;;;;;;;;;;4999660;28;20033;-65
2023/10/05 03:48:59;;;;;;;14.57;13.75;;;;;;;;;;5004827;28;20681;-63
2023/10/05 03:51:25;;;;;;;17.60;16.50;;;;;;;;;;5002888;28;20055;-65
2023/10/05 03:53:51;;;;;;;16.02;15.02;;;;;;;;;;5002033;28;20034;-63
2023/10/05 03:56:23;;;;;;;17.15;15.73;;;;;;;;;;5000885;28;20048;-63
2023/10/05 03:58:49;;;;;;;17.30;16.20;;;;;;;;;;4999487;28;20548;-64
2023/10/05 04:01:15;;;;;;;16.55;15.57;;;;;;;;;;4999337;28;20490;-64
2023/10/05 04:03:47;;;;;;;19.67;17.73;;;;;;;;;;5002713;28;20061;-64
2023/10/05 04:06:26;;;;;;;18.05;16.75;;;;;;;;;;5002710;28;20038;-63
2023/10/05 04:08:57;;;;;;;16.48;15.27;;;;;;;;;;5001887;28;20032;-63
2023/10/05 04:11:26;;;;;;;17.23;16.23;;;;;;;;;;5002783;28;20069;-63
2023/10/05 04:13:55;;;;;;;18.23;17.13;;;;;;;;;;5000038;28;20030;-63
2023/10/05 04:16:26;;;;;;;18.02;16.92;;;;;;;;;;4999483;28;20034;-64
2023/10/05 04:18:52;;;;;;;16.23;15.23;;;;;;;;;;5000390;28;20041;-63
2023/10/05 04:21:18;;;;;;;15.55;14.65;;;;;;;;;;5002579;28;20407;-63
2023/10/05 04:23:49;;;;;;;16.73;15.73;;;;;;;;;;5002369;28;20152;-63
2023/10/05 04:26:32;;;;;;;17.70;16.50;;;;;;;;;;5001483;28;20345;-63
2023/10/05 04:28:57;;;;;;;16.42;15.43;;;;;;;;;;4998543;28;20484;-63
2023/10/05 04:31:26;;;;;;;16.52;15.52;;;;;;;;;;4998396;28;20061;-65
2023/10/05 04:33:54;;;;;;;16.35;15.35;;;;;;;;;;4998221;28;20030;-63
2023/10/05 04:36:22;;;;;;;16.35;15.35;;;;;;;;;;4999516;28;20424;-63
2023/10/05 04:38:48;;;;;;;17.75;16.42;;;;;;;;;;5001469;28;20056;-63
2023/10/05 04:41:13;;;;;;;16.85;15.32;;;;;;;;;;5001421;28;20064;-63
2023/10/05 04:43:41;;;;;;;17.50;16.48;;;;;;;;;;5000499;28;20038;-63
2023/10/05 04:46:09;;;;;;;15.77;14.77;;;;;;;;;;5003324;28;20098;-63
2023/10/05 04:48:34;;;;;;;17.70;16.67;;;;;;;;;;5003065;28;20109;-63
2023/10/05 04:51:01;;;;;;;17.15;16.05;;;;;;;;;;5002128;28;20148;-64
2023/10/05 04:53:27;;;;;;;15.80;14.85;;;;;;;;;;5001639;28;20484;-65
2023/10/05 04:56:00;;;;;;;16.23;15.30;;;;;;;;;;5000984;28;20025;-65
2023/10/05 04:58:52;;;;;;;16.90;15.70;;;;;;;;;;5004040;28;20030;-64
2023/10/05 05:01:29;;;;;;;16.50;15.50;;;;;;;;;;5002024;28;20104;-65
2023/10/05 05:03:56;;;;;;;18.10;16.92;;;;;;;;;;5002519;28;20415;-63
2023/10/05 05:06:25;;;;;;;17.08;15.63;;;;;;;;;;5001142;28;20044;-63
2023/10/05 05:08:51;;;;;;;17.13;16.10;;;;;;;;;;5002312;28;20498;-63
2023/10/05 05:11:20;;;;;;;16.30;15.32;;;;;;;;;;5002796;28;20038;-64
2023/10/05 05:13:48;;;;;;;15.68;14.75;;;;;;;;;;5002020;28;20049;-65
2023/10/05 05:16:15;;;;;;;17.33;16.30;;;;;;;;;;5001030;28;20193;-65
2023/10/05 05:18:41;;;;;;;17.20;16.00;;;;;;;;;;5006061;28;20037;-63
2023/10/05 05:21:13;;;;;;;16.50;15.40;;;;;;;;;;5005339;28;20030;-64
2023/10/05 05:23:42;;;;;;;15.80;14.90;;;;;;;;;;5005334;28;20499;-63
2023/10/05 05:26:11;;;;;;;15.98;15.07;;;;;;;;;;5006106;28;20430;-63
2023/10/05 05:28:37;;;;;;;17.35;16.15;;;;;;;;;;5004107;28;20400;-63
2023/10/05 05:31:07;;;;;;;16.23;15.13;;;;;;;;;;5000768;28;20496;-65
2023/10/05 05:33:36;;;;;;;17.13;16.13;;;;;;;;;;5005747;28;20033;-65
2023/10/05 05:36:10;;;;;;;18.20;17.10;;;;;;;;;;5002719;28;20234;-63
2023/10/05 05:38:36;;;;;;;17.50;16.40;;;;;;;;;;5003081;28;20104;-63
2023/10/05 05:41:09;;;;;;;18.05;16.73;;;;;;;;;;5002221;28;20057;-63
2023/10/05 05:43:35;;;;;;;15.82;14.90;;;;;;;;;;5002475;28;20034;-64
2023/10/05 05:46:01;;;;;;;17.17;16.08;;;;;;;;;;5002186;28;20077;-64
2023/10/05 05:48:27;;;;;;;15.73;14.50;;;;;;;;;;5000679;28;20054;-65
2023/10/05 05:50:53;;;;;;;16.52;15.52;;;;;;;;;;4989052;28;20037;-65
2023/10/05 05:53:18;;;;;;;16.63;15.45;;;;;;;;;;5000920;28;20483;-64
2023/10/05 05:55:44;;;;;;;16.00;15.10;;;;;;;;;;5005703;28;20096;-64
2023/10/05 05:58:16;;;;;;;16.13;15.02;;;;;;;;;;5000629;28;20109;-62
2023/10/05 06:00:42;;;;;;;18.13;17.02;;;;;;;;;;4984616;28;20030;-63
2023/10/05 06:03:11;;;;;;;16.20;15.30;;;;;;;;;;5001542;28;20373;-63
2023/10/05 06:05:36;;;;;;;16.52;15.63;;;;;;;;;;4996263;28;20049;-62
2023/10/05 06:08:03;;;;;;;17.13;15.80;;;;;;;;;;5000802;28;20165;-63
2023/10/05 06:10:28;;;;;;;17.38;16.20;;;;;;;;;;4988818;28;20103;-63
2023/10/05 06:12:54;;;;;;;15.85;14.90;;;;;;;;;;5004622;28;20467;-63
2023/10/05 06:15:21;;;;;;;15.45;14.55;;;;;;;;;;5001066;28;20465;-63
2023/10/05 06:17:46;;;;;;;16.05;14.95;;;;;;;;;;5001442;28;20030;-63
2023/10/05 06:20:15;;;;;;;16.67;15.68;;;;;;;;;;5000977;28;20038;-63
2023/10/05 06:22:45;;;;;;;16.25;15.05;;;;;;;;;;5001749;28;20065;-63
2023/10/05 06:25:17;;;;;;;17.88;16.13;;;;;;;;;;5003135;28;20042;-63
2023/10/05 06:27:47;;;;;;;16.92;15.93;;;;;;;;;;5003698;28;20034;-63
2023/10/05 06:30:15;;;;;;;17.30;16.30;;;;;;;;;;4999791;28;20069;-63
2023/10/05 06:32:45;;;;;;;17.75;16.70;;;;;;;;;;4999968;28;20037;-63
2023/10/05 06:35:13;;;;;;;19.08;17.95;;;;;;;;;;5000042;28;20026;-63
2023/10/05 06:37:40;;;;;;;19.70;18.40;;;;;;;;;;5002880;28;20452;-63
2023/10/05 06:40:12;;;;;;;20.25;19.08;;;;;;;;;;5000514;28;20532;-63
2023/10/05 06:42:41;;;;;;;21.95;20.40;;;;;;;;;;5001720;28;20041;-63
2023/10/05 06:45:13;;;;;;;21.13;19.90;;;;;;;;;;5000618;28;20038;-63
2023/10/05 06:47:39;;;;;;;21.30;20.08;;;;;;;;;;4999760;28;20036;-63
2023/10/05 06:50:09;;;;;;;22.77;21.48;;;;;;;;;;5001248;28;20506;-63
2023/10/05 06:52:39;;;;;;;23.15;21.88;;;;;;;;;;5005410;28;20046;-64
2023/10/05 06:55:14;;;;;;;25.60;24.00;;;;;;;;;;4998297;28;20025;-63
2023/10/05 06:57:43;;;;;;;24.98;23.38;;;;;;;;;;4999690;28;20268;-63
2023/10/05 07:00:16;;;;;;;27.08;25.23;;;;;;;;;;5000907;28;20475;-63
2023/10/05 07:02:44;;;;;;;27.10;25.60;;;;;;;;;;5002159;28;20088;-63
2023/10/05 07:05:11;;;;;;;23.70;22.42;;;;;;;;;;5001951;28;20048;-63
2023/10/05 07:07:36;;;;;;;23.38;21.70;;;;;;;;;;5003857;28;20133;-63
2023/10/05 07:10:03;;;;;;;20.98;19.80;;;;;;;;;;5002496;28;20050;-63
2023/10/05 07:12:46;;;;;;;21.42;19.98;;;;;;;;;;5001177;28;20048;-65
2023/10/05 07:15:18;;;;;;;24.23;22.90;;;;;;;;;;5002117;28;20041;-62
2023/10/05 07:17:43;;;;;;;21.85;20.60;;;;;;;;;;5000753;28;20148;-65
2023/10/05 07:20:12;;;;;;;22.95;21.27;;;;;;;;;;5001985;28;20129;-65
2023/10/05 07:22:41;;;;;;;24.00;22.60;;;;;;;;;;4981190;28;20034;-65
2023/10/05 07:25:09;;;;;;;23.20;21.98;;;;;;;;;;5001595;28;20052;-66
2023/10/05 07:27:35;;;;;;;20.60;19.48;;;;;;;;;;5002093;28;20037;-62
2023/10/05 07:30:03;;;;;;;20.63;19.48;;;;;;;;;;5001228;28;20064;-62
2023/10/05 07:32:29;;;;;;;21.48;20.08;;;;;;;;;;5002662;28;20029;-66
2023/10/05 07:34:55;;;;;;;20.38;19.20;;;;;;;;;;5003812;28;20033;-65
2023/10/05 07:37:20;;;;;;;23.00;21.70;;;;;;;;;;5002939;28;20038;-65
2023/10/05 07:39:46;;;;;;;20.77;19.63;;;;;;;;;;5001737;28;20064;-65
2023/10/05 07:42:12;;;;;;;20.90;19.77;;;;;;;;;;4987695;28;20065;-63
2023/10/05 07:44:37;;;;;;;20.25;19.05;;;;;;;;;;5003979;28;20076;-63
2023/10/05 07:47:05;;;;;;;18.73;17.63;;;;;;;;;;4986590;28;20483;-62
2023/10/05 07:49:31;;;;;;;18.75;17.55;;;;;;;;;;5003282;28;20026;-66
2023/10/05 07:51:56;;;;;;;21.33;20.00;;;;;;;;;;4983274;28;20034;-64
2023/10/05 07:54:22;;;;;;;21.88;20.58;;;;;;;;;;4997819;28;20034;-61
2023/10/05 07:56:47;;;;;;;19.55;18.35;;;;;;;;;;5002320;28;20045;-61
2023/10/05 07:59:16;;;;;;;19.38;17.98;;;;;;;;;;5000307;28;20041;-64
2023/10/05 08:01:41;;;;;;;19.10;17.58;;;;;;;;;;4988231;28;20038;-64
2023/10/05 08:04:11;;;;;;;18.48;17.38;;;;;;;;;;5003494;28;20030;-65
2023/10/05 08:06:38;;;;;;;17.17;16.17;;;;;;;;;;4987458;28;20030;-64
2023/10/05 08:09:05;;;;;;;16.85;15.90;;;;;;;;;;5002114;28;20116;-64
2023/10/05 08:11:32;;;;;;;18.80;17.70;;;;;;;;;;5004954;28;20033;-64
2023/10/05 08:13:57;;;;;;;17.92;16.80;;;;;;;;;;5001809;28;20041;-65
2023/10/05 08:16:23;;;;;;;18.17;17.17;;;;;;;;;;5001612;28;20048;-64
2023/10/05 08:18:49;;;;;;;18.70;17.70;;;;;;;;;;5000948;28;20037;-65
2023/10/05 08:21:14;;;;;;;16.83;15.82;;;;;;;;;;5003863;28;20092;-65
2023/10/05 08:23:40;;;;;;;16.98;15.98;;;;;;;;;;5000791;28;20041;-65
2023/10/05 08:26:07;;;;;;;17.30;16.17;;;;;;;;;;4981299;28;20038;-65
2023/10/05 08:28:32;;;;;;;17.48;16.38;;;;;;;;;;4999784;28;20467;-63
2023/10/05 08:31:06;;;;;;;18.15;17.13;;;;;;;;;;4998319;28;20073;-62
2023/10/05 08:33:34;;;;;;;16.40;15.40;;;;;;;;;;5001034;28;20026;-62
2023/10/05 08:36:06;;;;;;;17.10;16.00;;;;;;;;;;5002716;28;20061;-62
2023/10/05 08:38:35;;;;;;;17.85;16.75;;;;;;;;;;5000632;28;20218;-63
2023/10/05 08:41:07;;;;;;;19.95;18.48;;;;;;;;;;4986677;28;20443;-65
2023/10/05 08:43:37;;;;;;;20.30;18.95;;;;;;;;;;5003026;28;20131;-65
2023/10/05 08:46:05;;;;;;;21.45;20.05;;;;;;;;;;4985896;28;20092;-65
2023/10/05 08:51:10;;;;;;;19.20;17.75;;;;;;;;;;5007719;28;20038;-64
2023/10/05 08:53:41;;;;;;;20.20;19.10;;;;;;;;;;5006924;28;20466;-63
2023/10/05 08:56:13;;;;;;;19.65;18.45;;;;;;;;;;5006408;28;20033;-64
2023/10/05 08:58:41;;;;;;;21.05;19.85;;;;;;;;;;5006493;28;20046;-65
2023/10/05 09:01:24;;;;;;;22.13;20.77;;;;;;;;;;5002416;28;20573;-65
2023/10/05 09:03:54;;;;;;;21.63;20.30;;;;;;;;;;5002850;28;20034;-65
2023/10/05 09:06:26;;;;;;;21.05;19.80;;;;;;;;;;5005991;28;20049;-65
2023/10/05 09:09:07;;;;;;;18.88;17.77;;;;;;;;;;5006105;28;20072;-66
2023/10/05 09:11:34;;;;;;;18.33;17.23;;;;;;;;;;5004686;28;20076;-62
2023/10/05 09:14:12;;;;;;;21.30;20.10;;;;;;;;;;5005321;28;20126;-62
2023/10/05 09:16:42;;;;;;;17.00;16.00;;;;;;;;;;5004964;28;20045;-64
2023/10/05 09:19:13;;;;;;;15.60;14.70;;;;;;;;;;5003693;28;20534;-65
2023/10/05 09:21:50;;;;;;;17.70;16.60;;;;;;;;;;5004849;28;20513;-62
2023/10/05 09:24:22;;;;;;;17.25;16.25;;;;;;;;;;5006172;28;20049;-62
2023/10/05 09:26:52;;;;;;;17.55;16.55;;;;;;;;;;5005142;28;20037;-62
2023/10/05 09:29:29;;;;;;;15.50;14.60;;;;;;;;;;5002611;28;20522;-65
2023/10/05 09:31:56;;;;;;;15.88;14.98;;;;;;;;;;5006147;28;20072;-66
2023/10/05 09:34:43;;;;;;;17.67;16.67;;;;;;;;;;5003966;28;20068;-65
2023/10/05 09:37:10;;;;;;;16.75;15.68;;;;;;;;;;5003425;28;20830;-65
2023/10/05 09:39:44;;;;;;;16.23;15.32;;;;;;;;;;5003131;28;20056;-66
2023/10/05 09:42:16;;;;;;;15.32;14.38;;;;;;;;;;5002429;28;20121;-63
2023/10/05 09:44:57;;;;;;;16.13;15.23;;;;;;;;;;5003781;28;20096;-65
2023/10/05 09:47:33;;;;;;;14.90;13.88;;;;;;;;;;5004616;28;20041;-66
2023/10/05 09:50:00;;;;;;;16.70;15.80;;;;;;;;;;5005946;28;20438;-65
2023/10/05 09:52:34;;;;;;;16.20;15.20;;;;;;;;;;5002143;28;20516;-63
2023/10/05 09:55:01;;;;;;;17.60;16.15;;;;;;;;;;5006077;28;20041;-63
2023/10/05 09:57:28;;;;;;;17.67;16.48;;;;;;;;;;4985481;28;20053;-62
2023/10/05 09:59:59;;;;;;;17.13;16.13;;;;;;;;;;5005913;28;20033;-63
2023/10/05 10:02:35;;;;;;;16.35;15.45;;;;;;;;;;5000312;28;20030;-63
2023/10/05 10:05:25;;;;;;;17.02;15.68;;;;;;;;;;5000815;28;20463;-62
2023/10/05 10:07:54;;;;;;;17.38;16.27;;;;;;;;;;4984078;28;20042;-63
2023/10/05 10:10:20;;;;;;;16.85;15.35;;;;;;;;;;4986959;28;20137;-63
2023/10/05 10:12:47;;;;;;;16.65;15.65;;;;;;;;;;4986462;28;20109;-62
2023/10/05 10:15:28;;;;;;;15.50;14.60;;;;;;;;;;4995207;28;20041;-61
2023/10/05 10:18:14;;;;;;;15.80;14.80;;;;;;;;;;5002086;28;20584;-64
2023/10/05 10:20:45;;;;;;;16.17;15.13;;;;;;;;;;5004931;28;20030;-63
2023/10/05 10:23:18;;;;;;;15.07;14.18;;;;;;;;;;5003907;28;20034;-63
2023/10/05 10:25:45;;;;;;;15.43;14.43;;;;;;;;;;5003436;28;20409;-63
2023/10/05 10:28:37;;;;;;;16.58;15.50;;;;;;;;;;4999905;28;20439;-61
2023/10/05 10:31:30;;;;;;;16.55;15.45;;;;;;;;;;5004807;28;20045;-64
2023/10/05 10:33:56;;;;;;;15.82;14.73;;;;;;;;;;5002357;28;20483;-63
2023/10/05 10:36:46;;;;;;;15.88;14.88;;;;;;;;;;5004717;28;20081;-63
2023/10/05 10:39:24;;;;;;;15.70;14.70;;;;;;;;;;4979717;28;20133;-62
2023/10/05 10:42:07;;;;;;;16.30;15.15;;;;;;;;;;5003050;28;20487;-61
2023/10/05 10:47:15;;;;;;;17.42;16.00;;;;;;;;;;4998660;28;20049;-62
2023/10/05 10:49:42;;;;;;;17.73;16.60;;;;;;;;;;5000328;28;20333;-62
2023/10/05 10:52:10;;;;;;;17.30;16.30;;;;;;;;;;5001514;28;20402;-62
2023/10/05 10:54:45;;;;;;;14.73;13.82;;;;;;;;;;5005166;28;20368;-64
2023/10/05 10:57:16;;;;;;;15.75;14.82;;;;;;;;;;5002665;28;20069;-61
2023/10/05 10:59:46;;;;;;;17.25;16.25;;;;;;;;;;5003328;28;20034;-64
2023/10/05 11:02:19;;;;;;;15.90;15.00;;;;;;;;;;5001305;28;20467;-61
2023/10/05 11:04:47;;;;;;;16.92;15.63;;;;;;;;;;5001370;28;20464;-64
2023/10/05 11:07:13;;;;;;;15.20;14.27;;;;;;;;;;5006092;28;20751;-65
2023/10/05 11:09:46;;;;;;;16.55;15.55;;;;;;;;;;5002519;28;20044;-66
2023/10/05 11:12:16;;;;;;;16.42;15.43;;;;;;;;;;4999374;28;20364;-65
2023/10/05 11:14:42;;;;;;;17.58;16.58;;;;;;;;;;5001335;28;20062;-64
2023/10/05 11:17:43;;;;;;;16.65;15.65;;;;;;;;;;4999984;28;20040;-65
2023/10/05 11:20:23;;;;;;;17.35;16.17;;;;;;;;;;5004291;28;20045;-62
2023/10/05 11:22:54;;;;;;;16.90;15.95;;;;;;;;;;5000154;28;20048;-64
2023/10/05 11:25:23;;;;;;;19.98;17.67;;;;;;;;;;4999080;28;20065;-62
2023/10/05 11:27:57;;;;;;;18.90;17.52;;;;;;;;;;4983288;28;20052;-65
2023/10/05 11:30:26;;;;;;;16.17;15.27;;;;;;;;;;4983262;28;20113;-65
2023/10/05 11:32:56;;;;;;;18.27;16.92;;;;;;;;;;5001921;28;20037;-62
2023/10/05 11:35:29;;;;;;;15.95;15.05;;;;;;;;;;5001737;28;20125;-62
2023/10/05 11:38:06;;;;;;;16.13;15.13;;;;;;;;;;5001450;28;20107;-65
2023/10/05 11:40:36;;;;;;;17.13;16.13;;;;;;;;;;5003574;28;20164;-65
2023/10/05 11:43:13;;;;;;;16.30;15.30;;;;;;;;;;5002831;28;20395;-65
2023/10/05 11:45:58;;;;;;;15.17;14.27;;;;;;;;;;5002767;28;20037;-64
2023/10/05 11:48:40;;;;;;;16.52;15.57;;;;;;;;;;4988415;28;20029;-64
2023/10/05 11:51:10;;;;;;;17.05;16.05;;;;;;;;;;5002636;28;20046;-63
2023/10/05 11:53:37;;;;;;;16.98;15.88;;;;;;;;;;5001862;28;20041;-62
2023/10/05 11:56:04;;;;;;;16.75;15.82;;;;;;;;;;5002526;28;20680;-65
2023/10/05 11:58:37;;;;;;;16.98;15.88;;;;;;;;;;5003457;28;20661;-65
2023/10/05 12:01:03;;;;;;;17.05;16.05;;;;;;;;;;4988740;28;20037;-66
2023/10/05 12:03:30;;;;;;;15.85;14.85;;;;;;;;;;5001978;28;20041;-66
2023/10/05 12:06:00;;;;;;;16.13;15.23;;;;;;;;;;4987057;28;20104;-62
2023/10/05 12:08:30;;;;;;;16.55;15.50;;;;;;;;;;5000630;28;20026;-66
2023/10/05 12:10:59;;;;;;;17.15;16.20;;;;;;;;;;5000429;28;20459;-61
2023/10/05 12:13:28;;;;;;;18.15;17.15;;;;;;;;;;5001333;28;20050;-61
2023/10/05 12:15:54;;;;;;;16.52;15.52;;;;;;;;;;4999926;28;20460;-64
2023/10/05 12:18:21;;;;;;;17.85;16.75;;;;;;;;;;5001903;28;20092;-64
2023/10/05 12:20:48;;;;;;;16.83;15.82;;;;;;;;;;5000433;28;20034;-64
2023/10/05 12:23:16;;;;;;;15.80;14.90;;;;;;;;;;4999139;28;20637;-63
2023/10/05 12:25:43;;;;;;;17.15;16.15;;;;;;;;;;5003867;28;20125;-64
2023/10/05 12:28:08;;;;;;;17.65;16.65;;;;;;;;;;5004966;28;20030;-63
2023/10/05 12:30:35;;;;;;;17.73;16.63;;;;;;;;;;5004686;28;20033;-64
2023/10/05 12:33:03;;;;;;;15.75;14.85;;;;;;;;;;4985878;28;20029;-66
2023/10/05 12:35:29;;;;;;;16.90;15.48;;;;;;;;;;5007123;28;20075;-62
2023/10/05 12:37:58;;;;;;;16.80;15.68;;;;;;;;;;5006893;28;20041;-65
2023/10/05 12:40:26;;;;;;;17.20;16.10;;;;;;;;;;5004491;28;20034;-62
2023/10/05 12:42:52;;;;;;;15.50;14.55;;;;;;;;;;5006703;28;20459;-65
2023/10/05 12:45:21;;;;;;;16.13;15.13;;;;;;;;;;4988282;28;20056;-63
2023/10/05 12:51:08;;;;;;;17.20;16.20;;;;;;;;;;4999497;28;20658;-63
2023/10/05 12:53:36;;;;;;;14.68;13.77;;;;;;;;;;5004775;28;20062;-63
2023/10/05 12:56:03;;;;;;;14.60;13.80;;;;;;;;;;5004609;28;20457;-64
2023/10/05 12:58:29;;;;;;;16.38;15.48;;;;;;;;;;5002128;28;20038;-65
2023/10/05 13:00:55;;;;;;;17.33;16.33;;;;;;;;;;5002643;28;20049;-65
2023/10/05 13:03:24;;;;;;;15.55;14.65;;;;;;;;;;4987519;28;20113;-65
2023/10/05 13:05:51;;;;;;;17.13;16.02;;;;;;;;;;5004983;28;20472;-65
2023/10/05 13:08:17;;;;;;;16.27;15.18;;;;;;;;;;5005834;28;20100;-62
2023/10/05 13:10:44;;;;;;;15.43;14.52;;;;;;;;;;5003057;28;20465;-63
2023/10/05 13:13:10;;;;;;;16.40;14.88;;;;;;;;;;5005196;28;20064;-63
2023/10/05 13:15:36;;;;;;;16.90;15.93;;;;;;;;;;5004328;28;20026;-63
2023/10/05 13:18:17;;;;;;;16.02;15.13;;;;;;;;;;5003416;28;20033;-63
2023/10/05 13:20:53;;;;;;;16.05;15.15;;;;;;;;;;5004183;28;20382;-62
2023/10/05 13:23:21;;;;;;;16.23;15.23;;;;;;;;;;5006031;28;20034;-62
2023/10/05 13:25:50;;;;;;;17.60;16.58;;;;;;;;;;5004425;28;20035;-62
2023/10/05 13:28:17;;;;;;;18.70;17.65;;;;;;;;;;5002097;28;20092;-63
2023/10/05 13:30:46;;;;;;;17.58;16.58;;;;;;;;;;5005670;28;20518;-63
2023/10/05 13:33:13;;;;;;;18.70;17.60;;;;;;;;;;5003597;28;20124;-63
2023/10/05 13:35:45;;;;;;;17.05;15.95;;;;;;;;;;5002740;28;20037;-62
2023/10/05 13:38:12;;;;;;;19.20;18.10;;;;;;;;;;4987820;28;20177;-62
2023/10/05 13:40:57;;;;;;;18.92;17.75;;;;;;;;;;5006211;28;20467;-63
2023/10/05 13:43:27;;;;;;;18.73;17.70;;;;;;;;;;4988290;28;20038;-63
2023/10/05 13:45:56;;;;;;;18.10;16.90;;;;;;;;;;5004127;28;20029;-63
2023/10/05 13:48:22;;;;;;;18.00;16.70;;;;;;;;;;5005007;28;20041;-63
2023/10/05 13:50:50;;;;;;;18.00;17.00;;;;;;;;;;5005226;28;20060;-63
2023/10/05 13:53:17;;;;;;;19.48;18.33;;;;;;;;;;5005375;28;20056;-63
2023/10/05 13:55:43;;;;;;;17.90;16.75;;;;;;;;;;5008406;28;20038;-63
2023/10/05 13:58:14;;;;;;;16.50;15.50;;;;;;;;;;5007588;28;20104;-63
2023/10/05 14:00:43;;;;;;;16.70;15.80;;;;;;;;;;5005663;28;20631;-63
2023/10/05 14:03:09;;;;;;;17.00;16.00;;;;;;;;;;5002964;28;20034;-63
2023/10/05 14:05:34;;;;;;;16.20;15.30;;;;;;;;;;5003686;28;20088;-63
2023/10/05 14:08:02;;;;;;;16.98;15.98;;;;;;;;;;5001741;28;20060;-64
2023/10/05 14:10:28;;;;;;;15.75;14.85;;;;;;;;;;5002763;28;20116;-63
2023/10/05 14:12:53;;;;;;;15.32;14.43;;;;;;;;;;5003434;28;20121;-63
2023/10/05 14:15:19;;;;;;;16.55;15.55;;;;;;;;;;5003596;28;20065;-62
2023/10/05 14:17:49;;;;;;;16.55;15.43;;;;;;;;;;5004007;28;20067;-63
2023/10/05 14:20:18;;;;;;;17.90;16.73;;;;;;;;;;5002082;28;20467;-63
2023/10/05 14:22:44;;;;;;;16.30;15.40;;;;;;;;;;4986393;28;20057;-62
2023/10/05 14:25:17;;;;;;;16.85;15.57;;;;;;;;;;4987247;28;20442;-64
2023/10/05 14:27:45;;;;;;;16.38;15.45;;;;;;;;;;5004554;28;20369;-65
2023/10/05 14:30:16;;;;;;;18.83;17.73;;;;;;;;;;4999681;28;20112;-63
2023/10/05 14:32:41;;;;;;;19.48;18.38;;;;;;;;;;5001967;28;20037;-66
2023/10/05 14:35:07;;;;;;;18.08;17.08;;;;;;;;;;5003883;28;20056;-65
2023/10/05 14:37:34;;;;;;;17.55;16.55;;;;;;;;;;4987378;28;20379;-65
2023/10/05 14:39:59;;;;;;;18.45;17.40;;;;;;;;;;5002111;28;20034;-65
2023/10/05 14:42:25;;;;;;;16.20;15.30;;;;;;;;;;5002921;28;20506;-63
2023/10/05 14:44:51;;;;;;;18.50;17.27;;;;;;;;;;5001608;28;20034;-63
2023/10/05 14:47:18;;;;;;;18.27;17.23;;;;;;;;;;5002979;28;20056;-64
2023/10/05 14:49:44;;;;;;;17.27;16.13;;;;;;;;;;5001869;28;20121;-63
2023/10/05 14:52:11;;;;;;;18.25;17.20;;;;;;;;;;5001422;28;20125;-63
2023/10/05 14:54:37;;;;;;;17.35;16.35;;;;;;;;;;5000977;28;20065;-64
2023/10/05 14:57:05;;;;;;;17.90;16.90;;;;;;;;;;5001853;28;20037;-64